sensor_id;sensor_type;location;lat;lon;timestamp;temperature;humidity
67529;DHT22;54366;51.980;5.856;2022-08-20T00:00:21;22.60;74.80
67529;DHT22;54366;51.980;5.856;2022-08-20T00:02:54;22.60;74.70
67529;DHT22;54366;51.980;5.856;2022-08-20T00:05:28;22.60;74.80
67529;DHT22;54366;51.980;5.856;2022-08-20T00:07:55;22.60;74.80
67529;DHT22;54366;51.980;5.856;2022-08-20T00:10:21;22.50;74.90
67529;DHT22;54366;51.980;5.856;2022-08-20T00:12:48;22.50;75.30
67529;DHT22;54366;51.980;5.856;2022-08-20T00:15:17;22.50;75.90
67529;DHT22;54366;51.980;5.856;2022-08-20T00:17:47;22.50;75.50
67529;DHT22;54366;51.980;5.856;2022-08-20T00:20:18;22.50;75.50
67529;DHT22;54366;51.980;5.856;2022-08-20T00:22:45;22.50;75.50
67529;DHT22;54366;51.980;5.856;2022-08-20T00:25:13;22.50;75.40
67529;DHT22;54366;51.980;5.856;2022-08-20T00:27:39;22.50;75.40
67529;DHT22;54366;51.980;5.856;2022-08-20T00:30:08;22.50;75.40
67529;DHT22;54366;51.980;5.856;2022-08-20T00:32:47;22.50;75.40
67529;DHT22;54366;51.980;5.856;2022-08-20T00:35:15;22.50;75.50
67529;DHT22;54366;51.980;5.856;2022-08-20T00:37:42;22.50;75.40
67529;DHT22;54366;51.980;5.856;2022-08-20T00:40:13;22.50;75.30
67529;DHT22;54366;51.980;5.856;2022-08-20T00:42:46;22.50;75.30
67529;DHT22;54366;51.980;5.856;2022-08-20T00:45:13;22.60;75.30
67529;DHT22;54366;51.980;5.856;2022-08-20T00:47:40;22.50;75.20
67529;DHT22;54366;51.980;5.856;2022-08-20T00:50:14;22.50;75.20
67529;DHT22;54366;51.980;5.856;2022-08-20T00:52:42;22.50;75.30
67529;DHT22;54366;51.980;5.856;2022-08-20T00:55:10;22.50;75.40
67529;DHT22;54366;51.980;5.856;2022-08-20T00:57:41;22.50;75.60
67529;DHT22;54366;51.980;5.856;2022-08-20T01:00:19;22.50;75.80
67529;DHT22;54366;51.980;5.856;2022-08-20T01:02:46;22.50;75.70
67529;DHT22;54366;51.980;5.856;2022-08-20T01:05:13;22.40;75.70
67529;DHT22;54366;51.980;5.856;2022-08-20T01:07:40;22.40;76.00
67529;DHT22;54366;51.980;5.856;2022-08-20T01:10:14;22.40;76.30
67529;DHT22;54366;51.980;5.856;2022-08-20T01:12:44;22.40;76.60
67529;DHT22;54366;51.980;5.856;2022-08-20T01:15:14;22.40;76.60
67529;DHT22;54366;51.980;5.856;2022-08-20T01:17:45;22.40;76.90
67529;DHT22;54366;51.980;5.856;2022-08-20T01:20:35;22.40;76.90
67529;DHT22;54366;51.980;5.856;2022-08-20T01:23:22;22.40;77.00
67529;DHT22;54366;51.980;5.856;2022-08-20T01:31:23;22.40;77.70
67529;DHT22;54366;51.980;5.856;2022-08-20T01:33:52;22.30;77.90
67529;DHT22;54366;51.980;5.856;2022-08-20T01:36:26;22.30;78.00
67529;DHT22;54366;51.980;5.856;2022-08-20T01:38:56;22.30;78.00
67529;DHT22;54366;51.980;5.856;2022-08-20T01:41:53;22.30;78.10
67529;DHT22;54366;51.980;5.856;2022-08-20T01:44:23;22.20;77.40
67529;DHT22;54366;51.980;5.856;2022-08-20T01:46:51;22.20;77.20
67529;DHT22;54366;51.980;5.856;2022-08-20T01:49:30;22.20;77.60
67529;DHT22;54366;51.980;5.856;2022-08-20T01:52:00;22.20;78.90
67529;DHT22;54366;51.980;5.856;2022-08-20T01:54:27;22.10;78.50
67529;DHT22;54366;51.980;5.856;2022-08-20T01:56:58;22.10;78.50
67529;DHT22;54366;51.980;5.856;2022-08-20T01:59:25;22.20;78.50
67529;DHT22;54366;51.980;5.856;2022-08-20T02:01:52;22.10;78.40
67529;DHT22;54366;51.980;5.856;2022-08-20T02:04:19;22.10;78.60
67529;DHT22;54366;51.980;5.856;2022-08-20T02:06:51;22.10;79.20
67529;DHT22;54366;51.980;5.856;2022-08-20T02:09:18;22.10;78.60
67529;DHT22;54366;51.980;5.856;2022-08-20T02:11:45;22.10;78.70
67529;DHT22;54366;51.980;5.856;2022-08-20T02:14:13;22.10;78.60
67529;DHT22;54366;51.980;5.856;2022-08-20T02:16:41;22.10;78.40
67529;DHT22;54366;51.980;5.856;2022-08-20T02:19:20;22.10;78.50
67529;DHT22;54366;51.980;5.856;2022-08-20T02:21:50;22.10;78.80
67529;DHT22;54366;51.980;5.856;2022-08-20T02:24:18;22.10;78.60
67529;DHT22;54366;51.980;5.856;2022-08-20T02:26:45;22.00;78.70
67529;DHT22;54366;51.980;5.856;2022-08-20T02:29:13;22.00;78.90
67529;DHT22;54366;51.980;5.856;2022-08-20T02:31:41;22.00;78.80
67529;DHT22;54366;51.980;5.856;2022-08-20T02:34:10;22.00;78.80
67529;DHT22;54366;51.980;5.856;2022-08-20T02:36:38;22.00;78.80
67529;DHT22;54366;51.980;5.856;2022-08-20T02:39:06;22.00;78.90
67529;DHT22;54366;51.980;5.856;2022-08-20T02:41:34;22.00;79.00
67529;DHT22;54366;51.980;5.856;2022-08-20T02:44:00;22.00;78.60
67529;DHT22;54366;51.980;5.856;2022-08-20T02:46:27;22.00;78.50
67529;DHT22;54366;51.980;5.856;2022-08-20T02:48:54;22.00;78.50
67529;DHT22;54366;51.980;5.856;2022-08-20T02:51:20;22.00;78.60
67529;DHT22;54366;51.980;5.856;2022-08-20T02:53:47;21.90;78.60
67529;DHT22;54366;51.980;5.856;2022-08-20T02:56:14;21.90;78.50
67529;DHT22;54366;51.980;5.856;2022-08-20T02:58:40;21.90;78.20
67529;DHT22;54366;51.980;5.856;2022-08-20T03:01:12;21.90;77.70
67529;DHT22;54366;51.980;5.856;2022-08-20T03:03:40;21.90;78.10
67529;DHT22;54366;51.980;5.856;2022-08-20T03:06:08;21.90;78.30
67529;DHT22;54366;51.980;5.856;2022-08-20T03:08:36;21.90;78.50
67529;DHT22;54366;51.980;5.856;2022-08-20T03:11:04;21.90;78.30
67529;DHT22;54366;51.980;5.856;2022-08-20T03:13:30;21.90;78.30
67529;DHT22;54366;51.980;5.856;2022-08-20T03:15:59;21.80;78.20
67529;DHT22;54366;51.980;5.856;2022-08-20T03:18:33;21.80;78.10
67529;DHT22;54366;51.980;5.856;2022-08-20T03:21:00;21.80;78.00
67529;DHT22;54366;51.980;5.856;2022-08-20T03:23:27;21.80;78.20
67529;DHT22;54366;51.980;5.856;2022-08-20T03:25:53;21.70;78.10
67529;DHT22;54366;51.980;5.856;2022-08-20T03:28:19;21.70;77.80
67529;DHT22;54366;51.980;5.856;2022-08-20T03:30:46;21.70;78.00
67529;DHT22;54366;51.980;5.856;2022-08-20T03:33:12;21.70;78.50
67529;DHT22;54366;51.980;5.856;2022-08-20T03:35:38;21.70;78.60
67529;DHT22;54366;51.980;5.856;2022-08-20T03:38:07;21.70;78.80
67529;DHT22;54366;51.980;5.856;2022-08-20T03:40:36;21.70;78.90
67529;DHT22;54366;51.980;5.856;2022-08-20T03:43:03;21.70;79.00
67529;DHT22;54366;51.980;5.856;2022-08-20T03:45:30;21.70;78.20
67529;DHT22;54366;51.980;5.856;2022-08-20T03:47:58;21.60;77.90
67529;DHT22;54366;51.980;5.856;2022-08-20T03:50:29;21.60;78.20
67529;DHT22;54366;51.980;5.856;2022-08-20T03:52:57;21.60;77.40
67529;DHT22;54366;51.980;5.856;2022-08-20T03:55:24;21.60;78.00
67529;DHT22;54366;51.980;5.856;2022-08-20T03:57:53;21.60;78.80
67529;DHT22;54366;51.980;5.856;2022-08-20T04:00:26;21.50;79.00
67529;DHT22;54366;51.980;5.856;2022-08-20T04:02:52;21.50;79.00
67529;DHT22;54366;51.980;5.856;2022-08-20T04:05:20;21.50;79.00
67529;DHT22;54366;51.980;5.856;2022-08-20T04:07:46;21.50;79.20
67529;DHT22;54366;51.980;5.856;2022-08-20T04:10:12;21.50;79.30
67529;DHT22;54366;51.980;5.856;2022-08-20T04:12:38;21.50;79.50
67529;DHT22;54366;51.980;5.856;2022-08-20T04:15:08;21.50;78.80
67529;DHT22;54366;51.980;5.856;2022-08-20T04:17:38;21.50;79.10
67529;DHT22;54366;51.980;5.856;2022-08-20T04:20:07;21.50;79.20
67529;DHT22;54366;51.980;5.856;2022-08-20T04:22:34;21.50;79.40
67529;DHT22;54366;51.980;5.856;2022-08-20T04:25:00;21.50;79.40
67529;DHT22;54366;51.980;5.856;2022-08-20T04:27:26;21.50;79.20
67529;DHT22;54366;51.980;5.856;2022-08-20T04:29:52;21.50;79.40
67529;DHT22;54366;51.980;5.856;2022-08-20T04:32:19;21.50;79.30
67529;DHT22;54366;51.980;5.856;2022-08-20T04:34:46;21.50;79.20
67529;DHT22;54366;51.980;5.856;2022-08-20T04:37:12;21.50;79.30
67529;DHT22;54366;51.980;5.856;2022-08-20T04:39:39;21.50;79.40
67529;DHT22;54366;51.980;5.856;2022-08-20T04:42:05;21.50;79.20
67529;DHT22;54366;51.980;5.856;2022-08-20T04:44:31;21.50;79.00
67529;DHT22;54366;51.980;5.856;2022-08-20T04:46:57;21.50;78.80
67529;DHT22;54366;51.980;5.856;2022-08-20T04:49:23;21.40;78.00
67529;DHT22;54366;51.980;5.856;2022-08-20T04:51:51;21.30;77.70
67529;DHT22;54366;51.980;5.856;2022-08-20T04:54:19;21.30;77.90
67529;DHT22;54366;51.980;5.856;2022-08-20T04:56:45;21.20;78.20
67529;DHT22;54366;51.980;5.856;2022-08-20T04:59:13;21.20;78.50
67529;DHT22;54366;51.980;5.856;2022-08-20T05:01:39;21.10;78.60
67529;DHT22;54366;51.980;5.856;2022-08-20T05:04:05;21.10;79.30
67529;DHT22;54366;51.980;5.856;2022-08-20T05:06:32;21.10;79.90
67529;DHT22;54366;51.980;5.856;2022-08-20T05:08:59;21.10;79.80
67529;DHT22;54366;51.980;5.856;2022-08-20T05:11:25;21.10;79.90
67529;DHT22;54366;51.980;5.856;2022-08-20T05:13:52;21.10;79.50
67529;DHT22;54366;51.980;5.856;2022-08-20T05:16:19;21.10;79.00
67529;DHT22;54366;51.980;5.856;2022-08-20T05:18:46;21.10;79.10
67529;DHT22;54366;51.980;5.856;2022-08-20T05:21:12;21.10;79.30
67529;DHT22;54366;51.980;5.856;2022-08-20T05:23:39;21.10;79.50
67529;DHT22;54366;51.980;5.856;2022-08-20T05:26:09;21.00;79.30
67529;DHT22;54366;51.980;5.856;2022-08-20T05:28:37;21.00;79.40
67529;DHT22;54366;51.980;5.856;2022-08-20T05:31:06;21.00;79.50
67529;DHT22;54366;51.980;5.856;2022-08-20T05:33:35;21.00;79.80
67529;DHT22;54366;51.980;5.856;2022-08-20T05:36:03;21.00;80.00
67529;DHT22;54366;51.980;5.856;2022-08-20T05:38:31;21.00;79.10
67529;DHT22;54366;51.980;5.856;2022-08-20T05:41:00;21.00;78.50
67529;DHT22;54366;51.980;5.856;2022-08-20T05:43:26;20.90;78.40
67529;DHT22;54366;51.980;5.856;2022-08-20T05:45:52;20.90;78.10
67529;DHT22;54366;51.980;5.856;2022-08-20T05:48:21;20.90;77.70
67529;DHT22;54366;51.980;5.856;2022-08-20T05:50:49;20.90;77.60
67529;DHT22;54366;51.980;5.856;2022-08-20T05:53:17;20.80;77.30
67529;DHT22;54366;51.980;5.856;2022-08-20T05:55:44;20.80;77.40
67529;DHT22;54366;51.980;5.856;2022-08-20T05:58:16;20.70;78.40
67529;DHT22;54366;51.980;5.856;2022-08-20T06:00:43;20.70;79.20
67529;DHT22;54366;51.980;5.856;2022-08-20T06:03:10;20.70;79.60
67529;DHT22;54366;51.980;5.856;2022-08-20T06:05:55;20.70;80.20
67529;DHT22;54366;51.980;5.856;2022-08-20T06:08:21;20.70;80.50
67529;DHT22;54366;51.980;5.856;2022-08-20T06:10:48;20.70;80.70
67529;DHT22;54366;51.980;5.856;2022-08-20T06:13:14;20.70;80.70
67529;DHT22;54366;51.980;5.856;2022-08-20T06:15:40;20.80;80.80
67529;DHT22;54366;51.980;5.856;2022-08-20T06:18:08;20.80;80.80
67529;DHT22;54366;51.980;5.856;2022-08-20T06:20:35;20.80;80.80
67529;DHT22;54366;51.980;5.856;2022-08-20T06:23:04;20.80;80.70
67529;DHT22;54366;51.980;5.856;2022-08-20T06:25:31;20.90;80.60
67529;DHT22;54366;51.980;5.856;2022-08-20T06:28:00;20.90;79.80
67529;DHT22;54366;51.980;5.856;2022-08-20T06:30:27;20.90;79.70
67529;DHT22;54366;51.980;5.856;2022-08-20T06:32:53;20.90;79.50
67529;DHT22;54366;51.980;5.856;2022-08-20T06:35:19;20.90;79.40
67529;DHT22;54366;51.980;5.856;2022-08-20T06:37:45;20.90;79.60
67529;DHT22;54366;51.980;5.856;2022-08-20T06:40:15;20.90;79.70
67529;DHT22;54366;51.980;5.856;2022-08-20T06:42:41;20.90;79.70
67529;DHT22;54366;51.980;5.856;2022-08-20T06:45:12;21.00;79.70
67529;DHT22;54366;51.980;5.856;2022-08-20T06:47:40;21.00;79.60
67529;DHT22;54366;51.980;5.856;2022-08-20T06:50:08;21.00;79.40
67529;DHT22;54366;51.980;5.856;2022-08-20T06:52:35;21.10;79.40
67529;DHT22;54366;51.980;5.856;2022-08-20T06:55:05;21.10;79.00
67529;DHT22;54366;51.980;5.856;2022-08-20T06:57:34;21.10;79.00
67529;DHT22;54366;51.980;5.856;2022-08-20T07:00:00;21.10;79.10
67529;DHT22;54366;51.980;5.856;2022-08-20T07:02:27;21.10;79.20
67529;DHT22;54366;51.980;5.856;2022-08-20T07:04:53;21.10;79.50
67529;DHT22;54366;51.980;5.856;2022-08-20T07:07:20;21.10;79.20
67529;DHT22;54366;51.980;5.856;2022-08-20T07:09:46;21.20;79.30
67529;DHT22;54366;51.980;5.856;2022-08-20T07:12:13;21.30;79.90
67529;DHT22;54366;51.980;5.856;2022-08-20T07:14:39;21.40;79.80
67529;DHT22;54366;51.980;5.856;2022-08-20T07:17:06;21.50;79.00
67529;DHT22;54366;51.980;5.856;2022-08-20T07:19:32;21.60;78.50
67529;DHT22;54366;51.980;5.856;2022-08-20T07:21:59;21.70;78.10
67529;DHT22;54366;51.980;5.856;2022-08-20T07:24:25;21.90;77.90
67529;DHT22;54366;51.980;5.856;2022-08-20T07:26:52;21.90;76.60
67529;DHT22;54366;51.980;5.856;2022-08-20T07:29:18;22.00;72.60
67529;DHT22;54366;51.980;5.856;2022-08-20T07:31:44;21.90;72.80
67529;DHT22;54366;51.980;5.856;2022-08-20T07:34:29;22.00;73.00
67529;DHT22;54366;51.980;5.856;2022-08-20T07:36:59;22.10;73.00
67529;DHT22;54366;51.980;5.856;2022-08-20T07:39:25;22.10;72.50
67529;DHT22;54366;51.980;5.856;2022-08-20T07:41:51;22.10;72.40
67529;DHT22;54366;51.980;5.856;2022-08-20T07:44:29;22.20;72.70
67529;DHT22;54366;51.980;5.856;2022-08-20T07:46:57;22.30;71.90
67529;DHT22;54366;51.980;5.856;2022-08-20T07:49:23;22.30;71.40
67529;DHT22;54366;51.980;5.856;2022-08-20T07:51:50;22.40;69.60
67529;DHT22;54366;51.980;5.856;2022-08-20T07:54:16;22.40;69.80
67529;DHT22;54366;51.980;5.856;2022-08-20T07:56:42;22.40;69.20
67529;DHT22;54366;51.980;5.856;2022-08-20T07:59:09;22.40;69.30
67529;DHT22;54366;51.980;5.856;2022-08-20T08:01:35;22.50;69.70
67529;DHT22;54366;51.980;5.856;2022-08-20T08:04:01;22.50;69.40
67529;DHT22;54366;51.980;5.856;2022-08-20T08:06:28;22.60;69.00
67529;DHT22;54366;51.980;5.856;2022-08-20T08:08:56;22.70;67.30
67529;DHT22;54366;51.980;5.856;2022-08-20T08:11:23;22.70;69.50
67529;DHT22;54366;51.980;5.856;2022-08-20T08:13:50;22.80;68.50
67529;DHT22;54366;51.980;5.856;2022-08-20T08:16:16;22.90;67.70
67529;DHT22;54366;51.980;5.856;2022-08-20T08:18:48;23.00;67.40
67529;DHT22;54366;51.980;5.856;2022-08-20T08:21:16;23.10;67.80
67529;DHT22;54366;51.980;5.856;2022-08-20T08:23:43;23.20;66.80
67529;DHT22;54366;51.980;5.856;2022-08-20T08:26:11;23.30;65.80
67529;DHT22;54366;51.980;5.856;2022-08-20T08:28:40;23.30;63.50
67529;DHT22;54366;51.980;5.856;2022-08-20T08:31:06;23.40;63.60
67529;DHT22;54366;51.980;5.856;2022-08-20T08:33:33;23.40;63.60
67529;DHT22;54366;51.980;5.856;2022-08-20T08:36:11;23.40;63.60
67529;DHT22;54366;51.980;5.856;2022-08-20T08:38:41;23.50;61.40
67529;DHT22;54366;51.980;5.856;2022-08-20T08:41:20;23.50;61.90
67529;DHT22;54366;51.980;5.856;2022-08-20T08:43:50;23.60;61.90
67529;DHT22;54366;51.980;5.856;2022-08-20T08:46:20;23.60;61.00
67529;DHT22;54366;51.980;5.856;2022-08-20T08:48:50;23.80;62.60
67529;DHT22;54366;51.980;5.856;2022-08-20T08:51:34;23.90;60.70
67529;DHT22;54366;51.980;5.856;2022-08-20T08:54:02;24.00;61.00
67529;DHT22;54366;51.980;5.856;2022-08-20T08:56:30;24.20;60.50
67529;DHT22;54366;51.980;5.856;2022-08-20T08:59:01;24.20;59.40
67529;DHT22;54366;51.980;5.856;2022-08-20T09:01:32;24.30;61.30
67529;DHT22;54366;51.980;5.856;2022-08-20T09:04:01;24.40;61.20
67529;DHT22;54366;51.980;5.856;2022-08-20T09:06:27;24.50;58.20
67529;DHT22;54366;51.980;5.856;2022-08-20T09:08:57;24.60;57.40
67529;DHT22;54366;51.980;5.856;2022-08-20T09:11:26;24.70;58.70
67529;DHT22;54366;51.980;5.856;2022-08-20T09:13:53;24.80;58.30
67529;DHT22;54366;51.980;5.856;2022-08-20T09:16:20;24.90;56.30
67529;DHT22;54366;51.980;5.856;2022-08-20T09:18:48;24.70;57.30
67529;DHT22;54366;51.980;5.856;2022-08-20T09:21:15;24.70;56.30
67529;DHT22;54366;51.980;5.856;2022-08-20T09:23:42;24.80;56.10
67529;DHT22;54366;51.980;5.856;2022-08-20T09:26:08;25.00;54.60
67529;DHT22;54366;51.980;5.856;2022-08-20T09:28:34;25.20;53.80
67529;DHT22;54366;51.980;5.856;2022-08-20T09:31:01;25.40;54.10
67529;DHT22;54366;51.980;5.856;2022-08-20T09:33:27;25.60;55.50
67529;DHT22;54366;51.980;5.856;2022-08-20T09:35:54;25.80;55.20
67529;DHT22;54366;51.980;5.856;2022-08-20T09:38:20;25.70;55.00
67529;DHT22;54366;51.980;5.856;2022-08-20T09:40:46;25.60;55.00
67529;DHT22;54366;51.980;5.856;2022-08-20T09:43:12;25.50;55.20
67529;DHT22;54366;51.980;5.856;2022-08-20T09:45:39;25.30;54.40
67529;DHT22;54366;51.980;5.856;2022-08-20T09:48:05;25.30;53.60
67529;DHT22;54366;51.980;5.856;2022-08-20T09:50:33;25.50;53.40
67529;DHT22;54366;51.980;5.856;2022-08-20T09:53:02;25.70;53.30
67529;DHT22;54366;51.980;5.856;2022-08-20T09:57:55;26.20;52.00
67529;DHT22;54366;51.980;5.856;2022-08-20T10:00:21;26.40;49.20
67529;DHT22;54366;51.980;5.856;2022-08-20T10:02:47;26.30;49.40
67529;DHT22;54366;51.980;5.856;2022-08-20T10:05:14;26.20;49.80
67529;DHT22;54366;51.980;5.856;2022-08-20T10:07:40;26.00;48.80
67529;DHT22;54366;51.980;5.856;2022-08-20T10:10:09;25.90;49.50
67529;DHT22;54366;51.980;5.856;2022-08-20T10:12:35;26.00;46.40
67529;DHT22;54366;51.980;5.856;2022-08-20T10:15:02;26.10;47.20
67529;DHT22;54366;51.980;5.856;2022-08-20T10:17:28;26.30;47.70
67529;DHT22;54366;51.980;5.856;2022-08-20T10:19:55;26.50;46.10
67529;DHT22;54366;51.980;5.856;2022-08-20T10:22:21;26.70;46.10
67529;DHT22;54366;51.980;5.856;2022-08-20T10:24:47;27.10;46.70
67529;DHT22;54366;51.980;5.856;2022-08-20T10:27:13;27.30;43.10
67529;DHT22;54366;51.980;5.856;2022-08-20T10:29:39;27.40;43.90
67529;DHT22;54366;51.980;5.856;2022-08-20T10:32:12;27.40;44.10
67529;DHT22;54366;51.980;5.856;2022-08-20T10:34:41;27.30;43.70
67529;DHT22;54366;51.980;5.856;2022-08-20T10:37:09;27.00;43.50
67529;DHT22;54366;51.980;5.856;2022-08-20T10:39:35;27.00;44.60
67529;DHT22;54366;51.980;5.856;2022-08-20T10:42:01;27.20;44.60
67529;DHT22;54366;51.980;5.856;2022-08-20T10:44:27;27.30;44.00
67529;DHT22;54366;51.980;5.856;2022-08-20T10:46:54;27.60;43.40
67529;DHT22;54366;51.980;5.856;2022-08-20T10:49:20;27.70;43.50
67529;DHT22;54366;51.980;5.856;2022-08-20T10:51:46;27.60;43.70
67529;DHT22;54366;51.980;5.856;2022-08-20T10:54:12;27.60;44.40
67529;DHT22;54366;51.980;5.856;2022-08-20T10:56:39;27.70;44.50
67529;DHT22;54366;51.980;5.856;2022-08-20T10:59:05;28.00;43.30
67529;DHT22;54366;51.980;5.856;2022-08-20T11:01:31;27.90;40.20
67529;DHT22;54366;51.980;5.856;2022-08-20T11:03:57;27.90;39.90
67529;DHT22;54366;51.980;5.856;2022-08-20T11:06:23;27.60;39.60
67529;DHT22;54366;51.980;5.856;2022-08-20T11:08:50;27.40;39.30
67529;DHT22;54366;51.980;5.856;2022-08-20T11:11:16;27.40;40.40
67529;DHT22;54366;51.980;5.856;2022-08-20T11:13:42;27.60;41.40
67529;DHT22;54366;51.980;5.856;2022-08-20T11:16:08;27.60;40.90
67529;DHT22;54366;51.980;5.856;2022-08-20T11:18:34;27.60;41.70
67529;DHT22;54366;51.980;5.856;2022-08-20T11:21:01;27.90;41.90
67529;DHT22;54366;51.980;5.856;2022-08-20T11:23:27;28.10;41.60
67529;DHT22;54366;51.980;5.856;2022-08-20T11:25:53;28.20;39.90
67529;DHT22;54366;51.980;5.856;2022-08-20T11:28:20;28.20;40.10
67529;DHT22;54366;51.980;5.856;2022-08-20T11:30:46;28.30;40.10
67529;DHT22;54366;51.980;5.856;2022-08-20T11:33:14;28.50;39.80
67529;DHT22;54366;51.980;5.856;2022-08-20T11:35:40;28.40;39.10
67529;DHT22;54366;51.980;5.856;2022-08-20T11:38:07;28.20;39.10
67529;DHT22;54366;51.980;5.856;2022-08-20T11:40:33;28.10;39.10
67529;DHT22;54366;51.980;5.856;2022-08-20T11:42:59;28.20;39.00
67529;DHT22;54366;51.980;5.856;2022-08-20T11:45:25;28.30;37.90
67529;DHT22;54366;51.980;5.856;2022-08-20T11:47:52;28.50;37.50
67529;DHT22;54366;51.980;5.856;2022-08-20T11:50:19;28.70;37.10
67529;DHT22;54366;51.980;5.856;2022-08-20T11:52:46;28.90;36.90
67529;DHT22;54366;51.980;5.856;2022-08-20T11:55:14;29.20;37.10
67529;DHT22;54366;51.980;5.856;2022-08-20T11:57:44;29.40;36.70
67529;DHT22;54366;51.980;5.856;2022-08-20T12:00:18;29.50;36.50
67529;DHT22;54366;51.980;5.856;2022-08-20T12:02:45;29.30;35.90
67529;DHT22;54366;51.980;5.856;2022-08-20T12:05:11;29.10;35.80
67529;DHT22;54366;51.980;5.856;2022-08-20T12:07:38;28.90;36.70
67529;DHT22;54366;51.980;5.856;2022-08-20T12:10:05;29.00;36.00
67529;DHT22;54366;51.980;5.856;2022-08-20T12:12:32;28.90;35.70
67529;DHT22;54366;51.980;5.856;2022-08-20T12:14:58;29.00;35.30
67529;DHT22;54366;51.980;5.856;2022-08-20T12:17:28;29.00;35.60
67529;DHT22;54366;51.980;5.856;2022-08-20T12:19:56;29.00;34.80
67529;DHT22;54366;51.980;5.856;2022-08-20T12:22:23;29.00;35.30
67529;DHT22;54366;51.980;5.856;2022-08-20T12:24:50;29.10;33.70
67529;DHT22;54366;51.980;5.856;2022-08-20T12:27:26;29.20;34.40
67529;DHT22;54366;51.980;5.856;2022-08-20T12:29:55;29.20;34.10
67529;DHT22;54366;51.980;5.856;2022-08-20T12:32:26;29.20;33.80
67529;DHT22;54366;51.980;5.856;2022-08-20T12:34:53;29.10;33.70
67529;DHT22;54366;51.980;5.856;2022-08-20T12:37:25;28.80;32.20
67529;DHT22;54366;51.980;5.856;2022-08-20T12:39:55;28.50;33.70
67529;DHT22;54366;51.980;5.856;2022-08-20T12:42:22;28.30;33.50
67529;DHT22;54366;51.980;5.856;2022-08-20T12:44:48;28.00;34.70
67529;DHT22;54366;51.980;5.856;2022-08-20T12:47:21;27.90;35.80
67529;DHT22;54366;51.980;5.856;2022-08-20T12:49:57;27.80;35.80
67529;DHT22;54366;51.980;5.856;2022-08-20T12:52:26;27.80;36.10
67529;DHT22;54366;51.980;5.856;2022-08-20T12:54:53;27.70;35.10
67529;DHT22;54366;51.980;5.856;2022-08-20T12:57:36;27.60;35.60
67529;DHT22;54366;51.980;5.856;2022-08-20T13:02:38;27.80;36.10
67529;DHT22;54366;51.980;5.856;2022-08-20T13:05:09;28.00;36.00
67529;DHT22;54366;51.980;5.856;2022-08-20T13:07:37;28.30;35.80
67529;DHT22;54366;51.980;5.856;2022-08-20T13:10:05;28.60;36.00
67529;DHT22;54366;51.980;5.856;2022-08-20T13:12:32;28.90;35.60
67529;DHT22;54366;51.980;5.856;2022-08-20T13:14:58;29.20;34.00
67529;DHT22;54366;51.980;5.856;2022-08-20T13:17:24;29.40;34.50
67529;DHT22;54366;51.980;5.856;2022-08-20T13:19:51;29.50;34.40
67529;DHT22;54366;51.980;5.856;2022-08-20T13:22:17;29.80;33.60
67529;DHT22;54366;51.980;5.856;2022-08-20T13:24:43;29.90;32.20
67529;DHT22;54366;51.980;5.856;2022-08-20T13:27:15;29.90;32.90
67529;DHT22;54366;51.980;5.856;2022-08-20T13:29:49;30.00;32.60
67529;DHT22;54366;51.980;5.856;2022-08-20T13:32:16;29.90;32.00
67529;DHT22;54366;51.980;5.856;2022-08-20T13:34:43;29.90;33.00
67529;DHT22;54366;51.980;5.856;2022-08-20T13:37:15;30.00;33.10
67529;DHT22;54366;51.980;5.856;2022-08-20T13:39:42;30.00;32.50
67529;DHT22;54366;51.980;5.856;2022-08-20T13:42:09;29.90;31.70
67529;DHT22;54366;51.980;5.856;2022-08-20T13:44:36;29.80;30.90
67529;DHT22;54366;51.980;5.856;2022-08-20T13:47:18;29.60;31.10
67529;DHT22;54366;51.980;5.856;2022-08-20T13:49:46;29.40;31.30
67529;DHT22;54366;51.980;5.856;2022-08-20T13:52:13;29.40;32.00
67529;DHT22;54366;51.980;5.856;2022-08-20T13:54:40;29.30;31.80
67529;DHT22;54366;51.980;5.856;2022-08-20T13:57:14;29.20;32.50
67529;DHT22;54366;51.980;5.856;2022-08-20T13:59:47;29.20;33.00
67529;DHT22;54366;51.980;5.856;2022-08-20T14:02:15;29.10;32.50
67529;DHT22;54366;51.980;5.856;2022-08-20T14:04:41;29.00;33.40
67529;DHT22;54366;51.980;5.856;2022-08-20T14:09:44;28.80;34.00
67529;DHT22;54366;51.980;5.856;2022-08-20T14:12:11;28.70;34.20
67529;DHT22;54366;51.980;5.856;2022-08-20T14:14:39;28.70;34.30
67529;DHT22;54366;51.980;5.856;2022-08-20T14:17:13;28.60;34.10
67529;DHT22;54366;51.980;5.856;2022-08-20T14:19:40;28.40;34.30
67529;DHT22;54366;51.980;5.856;2022-08-20T14:22:06;28.30;34.20
67529;DHT22;54366;51.980;5.856;2022-08-20T14:24:35;28.20;34.60
67529;DHT22;54366;51.980;5.856;2022-08-20T14:27:06;28.20;35.60
67529;DHT22;54366;51.980;5.856;2022-08-20T14:29:39;28.30;35.80
67529;DHT22;54366;51.980;5.856;2022-08-20T14:32:06;28.30;35.90
67529;DHT22;54366;51.980;5.856;2022-08-20T14:34:33;28.30;35.90
67529;DHT22;54366;51.980;5.856;2022-08-20T14:39:48;28.40;35.90
67529;DHT22;54366;51.980;5.856;2022-08-20T14:42:15;28.30;35.90
67529;DHT22;54366;51.980;5.856;2022-08-20T14:44:42;28.30;35.70
67529;DHT22;54366;51.980;5.856;2022-08-20T14:49:47;28.30;36.30
67529;DHT22;54366;51.980;5.856;2022-08-20T14:52:15;28.20;36.80
67529;DHT22;54366;51.980;5.856;2022-08-20T14:54:42;28.30;36.80
67529;DHT22;54366;51.980;5.856;2022-08-20T14:57:09;28.30;36.70
67529;DHT22;54366;51.980;5.856;2022-08-20T14:59:36;28.30;36.50
67529;DHT22;54366;51.980;5.856;2022-08-20T15:02:07;28.30;36.60
67529;DHT22;54366;51.980;5.856;2022-08-20T15:04:35;28.40;36.90
67529;DHT22;54366;51.980;5.856;2022-08-20T15:07:02;28.40;36.50
67529;DHT22;54366;51.980;5.856;2022-08-20T15:09:34;28.20;35.90
67529;DHT22;54366;51.980;5.856;2022-08-20T15:12:00;28.00;36.40
67529;DHT22;54366;51.980;5.856;2022-08-20T15:14:27;27.90;37.00
67529;DHT22;54366;51.980;5.856;2022-08-20T15:16:54;27.90;37.40
67529;DHT22;54366;51.980;5.856;2022-08-20T15:19:21;27.90;38.10
67529;DHT22;54366;51.980;5.856;2022-08-20T15:21:47;27.90;37.60
67529;DHT22;54366;51.980;5.856;2022-08-20T15:24:15;27.90;38.00
67529;DHT22;54366;51.980;5.856;2022-08-20T15:26:41;27.90;38.20
67529;DHT22;54366;51.980;5.856;2022-08-20T15:29:07;27.90;38.20
67529;DHT22;54366;51.980;5.856;2022-08-20T15:31:34;27.80;38.10
67529;DHT22;54366;51.980;5.856;2022-08-20T15:34:00;27.80;38.70
67529;DHT22;54366;51.980;5.856;2022-08-20T15:36:27;27.70;39.00
67529;DHT22;54366;51.980;5.856;2022-08-20T15:38:53;27.50;38.80
67529;DHT22;54366;51.980;5.856;2022-08-20T15:41:19;27.40;38.90
67529;DHT22;54366;51.980;5.856;2022-08-20T15:43:45;27.30;38.70
67529;DHT22;54366;51.980;5.856;2022-08-20T15:46:12;27.30;39.00
67529;DHT22;54366;51.980;5.856;2022-08-20T15:48:41;27.30;39.60
67529;DHT22;54366;51.980;5.856;2022-08-20T15:51:40;27.40;39.80
67529;DHT22;54366;51.980;5.856;2022-08-20T15:54:18;27.40;40.10